Time;durP1;ratioP1;P1;durP2;ratioP2;P2;SDS_P1;SDS_P2;PMS_P1;PMS_P2;Temp;Humidity;BMP_temperature;BMP_pressure;BME280_temperature;BME280_humidity;BME280_pressure;Samples;Min_cycle;Max_cycle;Signal;HPM_P1;HPM_P2
2023/01/09 00:00:42;;;;;;;2.87;1.10;;;7.90;99.90;;;;;;4989233;28;20221;-76
2023/01/09 00:03:08;;;;;;;0.90;0.90;;;8.00;99.90;;;;;;4990748;28;20264;-77
2023/01/09 00:05:33;;;;;;;1.43;1.20;;;7.90;99.90;;;;;;4989517;28;20523;-76
2023/01/09 00:07:59;;;;;;;3.73;1.40;;;8.00;99.90;;;;;;4990853;28;20186;-76
2023/01/09 00:10:25;;;;;;;1.00;0.87;;;8.00;99.90;;;;;;4990569;28;20735;-76
2023/01/09 00:12:50;;;;;;;1.20;0.93;;;7.90;99.90;;;;;;4973099;28;20724;-75
2023/01/09 00:15:16;;;;;;;1.20;1.07;;;7.90;99.90;;;;;;4990621;28;20297;-76
2023/01/09 00:17:41;;;;;;;1.10;0.97;;;7.90;99.90;;;;;;4989226;28;20185;-76
2023/01/09 00:20:08;;;;;;;1.20;1.03;;;7.90;99.90;;;;;;4990579;28;20265;-76
2023/01/09 00:22:35;;;;;;;1.43;0.70;;;7.90;99.90;;;;;;4975413;28;20197;-76
2023/01/09 00:25:01;;;;;;;4.27;0.97;;;7.90;99.90;;;;;;4991345;28;20429;-76
2023/01/09 00:27:31;;;;;;;1.10;0.97;;;7.90;99.90;;;;;;4989804;28;20416;-74
2023/01/09 00:29:56;;;;;;;1.10;0.70;;;7.90;99.90;;;;;;4973121;28;20185;-75
2023/01/09 00:32:22;;;;;;;0.80;0.70;;;7.90;99.90;;;;;;4974315;28;20479;-75
2023/01/09 00:34:48;;;;;;;1.13;1.03;;;7.90;99.90;;;;;;4986356;28;20220;-75
2023/01/09 00:37:13;;;;;;;1.40;1.03;;;7.90;99.90;;;;;;5001512;28;20232;-75
2023/01/09 00:39:40;;;;;;;1.30;1.10;;;7.90;99.90;;;;;;5003291;28;20243;-74
2023/01/09 00:42:09;;;;;;;0.80;0.70;;;7.90;99.90;;;;;;5001999;28;20205;-75
2023/01/09 00:44:45;;;;;;;1.00;0.83;;;7.80;99.90;;;;;;4990325;28;20421;-75
2023/01/09 00:47:16;;;;;;;2.40;1.20;;;7.90;99.90;;;;;;4989066;28;20510;-75
2023/01/09 00:49:42;;;;;;;1.03;0.93;;;8.00;99.90;;;;;;4990275;28;20951;-76
2023/01/09 00:52:10;;;;;;;1.60;1.13;;;8.00;99.90;;;;;;4988051;28;20441;-76
2023/01/09 00:54:38;;;;;;;1.33;0.80;;;8.00;99.90;;;;;;4989764;28;20468;-75
2023/01/09 00:57:03;;;;;;;1.50;0.90;;;8.10;99.90;;;;;;4989774;28;20425;-75
2023/01/09 00:59:29;;;;;;;1.20;0.87;;;8.10;99.90;;;;;;4989721;28;20476;-75
2023/01/09 01:01:55;;;;;;;1.10;1.00;;;8.10;99.90;;;;;;4989855;28;20205;-75
2023/01/09 01:09:48;;;;;;;2.60;1.10;;;8.20;99.90;;;;;;4989000;28;20501;-76
2023/01/09 01:12:14;;;;;;;1.20;1.00;;;8.30;99.90;;;;;;4971832;28;20461;-76
2023/01/09 01:14:40;;;;;;;1.10;1.00;;;8.20;99.90;;;;;;4987958;28;20695;-77
2023/01/09 01:17:06;;;;;;;1.27;1.10;;;8.20;99.90;;;;;;4989398;28;20196;-76
2023/01/09 01:19:33;;;;;;;1.00;0.90;;;8.20;99.90;;;;;;4971761;28;20276;-76
2023/01/09 01:21:59;;;;;;;1.17;1.07;;;8.20;99.90;;;;;;4989184;28;20448;-76
2023/01/09 01:24:25;;;;;;;1.20;1.07;;;8.30;99.90;;;;;;4987861;28;20459;-76
2023/01/09 01:26:50;;;;;;;2.10;1.10;;;8.30;99.90;;;;;;4989238;28;20194;-76
2023/01/09 01:29:16;;;;;;;1.00;0.90;;;8.30;99.90;;;;;;4989271;28;20553;-76
2023/01/09 01:31:41;;;;;;;2.00;1.50;;;8.30;99.90;;;;;;4987649;28;20304;-76
2023/01/09 01:34:07;;;;;;;0.80;0.77;;;8.30;99.90;;;;;;4987967;28;20595;-76
2023/01/09 01:36:33;;;;;;;1.10;1.00;;;8.30;99.90;;;;;;4989384;28;20235;-76
2023/01/09 01:38:59;;;;;;;1.47;0.80;;;8.30;99.90;;;;;;4989196;28;20710;-76
2023/01/09 01:41:30;;;;;;;1.00;0.73;;;8.20;99.90;;;;;;4971481;28;20455;-76
2023/01/09 01:43:59;;;;;;;0.83;0.73;;;8.20;99.90;;;;;;4988050;28;20189;-75
2023/01/09 01:46:26;;;;;;;1.17;1.07;;;8.20;99.90;;;;;;4989069;28;20425;-76
2023/01/09 01:49:00;;;;;;;1.80;0.80;;;8.20;99.90;;;;;;4987852;28;20440;-76
2023/01/09 01:51:29;;;;;;;0.93;0.87;;;8.20;99.90;;;;;;4989099;28;20945;-76
2023/01/09 01:53:59;;;;;;;0.83;0.83;;;8.20;99.90;;;;;;4988888;28;20976;-76
2023/01/09 01:56:33;;;;;;;1.83;0.60;;;8.20;99.90;;;;;;4989121;28;20989;-76
2023/01/09 01:59:26;;;;;;;0.90;0.70;;;8.20;99.90;;;;;;4987740;28;20424;-75
2023/01/09 02:01:56;;;;;;;1.93;0.70;;;8.20;99.90;;;;;;4988896;28;20956;-74
2023/01/09 02:04:22;;;;;;;0.90;0.67;;;8.20;99.90;;;;;;4990178;28;20435;-75
2023/01/09 02:06:52;;;;;;;0.80;0.60;;;8.20;99.90;;;;;;4991502;28;20437;-75
2023/01/09 02:09:21;;;;;;;0.90;0.50;;;8.20;99.90;;;;;;4992931;28;20192;-75
2023/01/09 02:11:51;;;;;;;0.70;0.47;;;8.30;99.90;;;;;;4992744;28;20477;-74
2023/01/09 02:14:20;;;;;;;1.20;0.60;;;8.20;99.90;;;;;;4992694;28;20469;-76
2023/01/09 02:17:00;;;;;;;0.60;0.40;;;8.20;99.90;;;;;;4974906;28;20424;-76
2023/01/09 02:19:47;;;;;;;3.37;0.77;;;8.20;99.90;;;;;;4992840;28;20425;-76
2023/01/09 02:22:24;;;;;;;0.70;0.40;;;8.20;99.90;;;;;;4992508;28;20481;-76
2023/01/09 02:25:11;;;;;;;0.70;0.50;;;8.10;99.90;;;;;;4990960;28;20438;-76
2023/01/09 02:28:12;;;;;;;0.70;0.40;;;8.20;99.90;;;;;;4992299;28;20491;-76
2023/01/09 02:30:47;;;;;;;0.70;0.40;;;8.20;99.90;;;;;;4969629;28;20450;-76
2023/01/09 02:33:47;;;;;;;0.70;0.40;;;8.20;99.90;;;;;;4991975;28;20453;-76
2023/01/09 02:36:39;;;;;;;0.70;0.60;;;8.10;99.90;;;;;;4992139;28;20427;-76
2023/01/09 02:39:21;;;;;;;0.90;0.50;;;8.10;99.90;;;;;;4992161;28;20421;-75
2023/01/09 02:42:13;;;;;;;0.60;0.40;;;8.10;99.90;;;;;;4992361;28;20437;-76
2023/01/09 02:44:41;;;;;;;0.70;0.50;;;8.10;99.90;;;;;;4992054;28;20531;-76
2023/01/09 02:47:16;;;;;;;0.70;0.30;;;8.10;99.90;;;;;;4991814;28;20436;-77
2023/01/09 02:49:52;;;;;;;0.67;0.40;;;8.10;99.90;;;;;;4990707;28;20428;-76
2023/01/09 02:52:44;;;;;;;0.60;0.40;;;8.10;99.90;;;;;;4992093;28;20938;-77
2023/01/09 02:55:30;;;;;;;0.60;0.40;;;8.20;99.90;;;;;;4990498;28;20909;-77
2023/01/09 02:58:20;;;;;;;2.30;0.47;;;8.10;99.90;;;;;;4991871;28;20409;-75
2023/01/09 03:00:59;;;;;;;0.70;0.40;;;8.10;99.90;;;;;;4990390;28;20519;-78
2023/01/09 03:03:48;;;;;;;0.80;0.40;;;8.00;99.90;;;;;;4974060;28;20419;-75
2023/01/09 03:06:23;;;;;;;0.70;0.47;;;8.00;99.90;;;;;;4991764;28;20470;-77
2023/01/09 03:08:53;;;;;;;5.80;0.97;;;7.90;99.90;;;;;;4991895;28;20763;-77
2023/01/09 03:11:20;;;;;;;2.00;0.50;;;7.80;99.90;;;;;;4974912;28;20455;-78
2023/01/09 03:13:52;;;;;;;1.10;0.47;;;7.70;99.90;;;;;;4991949;28;20841;-77
2023/01/09 03:16:30;;;;;;;0.60;0.33;;;7.70;99.90;;;;;;4991421;28;21056;-78
2023/01/09 03:18:58;;;;;;;1.00;0.40;;;7.60;99.90;;;;;;4990806;28;20421;-77
2023/01/09 03:21:24;;;;;;;0.60;0.40;;;7.60;99.90;;;;;;4991670;28;21029;-79
2023/01/09 03:23:53;;;;;;;1.17;0.50;;;7.50;99.90;;;;;;4990272;28;20432;-78
2023/01/09 03:26:18;;;;;;;0.83;0.50;;;7.40;99.90;;;;;;4991596;28;20433;-77
2023/01/09 03:28:45;;;;;;;0.70;0.50;;;7.30;99.90;;;;;;4991367;28;20433;-77
2023/01/09 03:31:11;;;;;;;0.60;0.30;;;7.30;99.90;;;;;;4991368;28;20228;-77
2023/01/09 03:33:36;;;;;;;0.70;0.60;;;7.20;99.90;;;;;;4991151;28;20993;-77
2023/01/09 03:36:04;;;;;;;0.70;0.40;;;7.20;99.90;;;;;;4991251;28;20533;-77
2023/01/09 03:38:30;;;;;;;0.60;0.40;;;7.10;99.90;;;;;;4991507;28;21236;-78
2023/01/09 03:40:55;;;;;;;0.63;0.40;;;7.20;99.90;;;;;;4991247;28;20473;-76
2023/01/09 03:43:21;;;;;;;1.10;0.40;;;7.10;99.90;;;;;;4990727;28;20216;-77
2023/01/09 03:45:46;;;;;;;0.70;0.40;;;7.00;99.90;;;;;;4990028;28;20181;-77
2023/01/09 03:48:12;;;;;;;0.60;0.30;;;7.00;99.90;;;;;;4991825;28;20182;-78
2023/01/09 03:50:38;;;;;;;0.60;0.30;;;7.00;99.90;;;;;;4992590;28;20208;-78
2023/01/09 03:53:03;;;;;;;1.43;0.40;;;6.90;99.90;;;;;;4993010;28;20794;-78
2023/01/09 03:55:29;;;;;;;0.60;0.40;;;7.00;99.90;;;;;;4992374;28;20752;-80
2023/01/09 03:57:55;;;;;;;0.60;0.30;;;7.00;99.90;;;;;;4990251;28;20726;-77
2023/01/09 04:00:21;;;;;;;0.60;0.30;;;7.00;99.90;;;;;;4991582;28;20223;-78
2023/01/09 04:02:46;;;;;;;0.60;0.30;;;7.00;99.90;;;;;;4974024;28;20256;-78
2023/01/09 04:05:12;;;;;;;0.90;0.30;;;7.00;99.90;;;;;;4990118;28;20437;-78
2023/01/09 04:07:37;;;;;;;0.60;0.30;;;7.00;99.90;;;;;;4989696;28;20190;-79
2023/01/09 04:10:04;;;;;;;0.70;0.30;;;7.10;99.90;;;;;;4991303;28;20192;-79
2023/01/09 04:12:29;;;;;;;0.60;0.30;;;7.00;99.90;;;;;;4990205;28;20224;-78
2023/01/09 04:14:55;;;;;;;0.70;0.40;;;7.00;99.90;;;;;;4991049;28;20488;-77
2023/01/09 04:17:20;;;;;;;0.60;0.30;;;6.90;99.90;;;;;;4990180;28;20236;-77
2023/01/09 04:19:46;;;;;;;0.70;0.30;;;7.00;99.90;;;;;;4991380;28;20333;-79
2023/01/09 04:22:11;;;;;;;0.60;0.30;;;7.00;99.90;;;;;;4989627;28;20209;-78
2023/01/09 04:24:37;;;;;;;0.70;0.40;;;7.00;99.90;;;;;;4990685;28;20212;-79
2023/01/09 04:27:03;;;;;;;0.60;0.30;;;6.90;99.90;;;;;;4988469;28;20291;-79
2023/01/09 04:29:28;;;;;;;0.73;0.40;;;6.90;99.90;;;;;;4989308;28;20194;-80
2023/01/09 04:31:54;;;;;;;1.90;0.40;;;7.00;99.90;;;;;;4989102;28;20288;-79
2023/01/09 04:34:24;;;;;;;0.67;0.37;;;7.00;99.90;;;;;;4990712;28;20221;-79
2023/01/09 04:36:53;;;;;;;0.60;0.30;;;7.00;99.90;;;;;;4958192;28;20593;-79
2023/01/09 04:39:22;;;;;;;5.63;0.37;;;7.00;99.90;;;;;;4990941;28;20425;-79
2023/01/09 04:41:47;;;;;;;0.60;0.30;;;7.00;99.90;;;;;;4990856;28;20452;-79
2023/01/09 04:44:16;;;;;;;0.70;0.37;;;7.00;99.90;;;;;;4973281;28;20444;-77
2023/01/09 04:46:41;;;;;;;2.23;0.40;;;7.00;99.90;;;;;;4990755;28;20213;-77
2023/01/09 04:49:07;;;;;;;0.60;0.30;;;6.90;99.90;;;;;;4989761;28;20828;-76
2023/01/09 04:51:32;;;;;;;0.60;0.30;;;6.90;99.90;;;;;;4990296;28;20221;-81
2023/01/09 04:53:58;;;;;;;1.23;0.30;;;6.80;99.90;;;;;;4990731;28;20238;-79
2023/01/09 04:56:24;;;;;;;0.70;0.50;;;6.60;99.90;;;;;;4989348;28;20193;-79
2023/01/09 04:58:49;;;;;;;1.87;0.43;;;6.40;99.90;;;;;;4989611;28;20198;-79
2023/01/09 05:01:15;;;;;;;1.17;0.33;;;6.40;99.90;;;;;;4956864;28;20233;-79
2023/01/09 05:03:40;;;;;;;0.60;0.40;;;6.30;99.90;;;;;;4988837;28;20562;-76
2023/01/09 05:06:06;;;;;;;1.53;0.50;;;6.30;99.90;;;;;;4990025;28;20189;-76
2023/01/09 05:08:32;;;;;;;0.63;0.40;;;6.30;99.90;;;;;;4988549;28;20288;-77
2023/01/09 05:10:58;;;;;;;0.70;0.40;;;6.30;99.90;;;;;;4989954;28;20292;-76
2023/01/09 05:13:23;;;;;;;0.70;0.40;;;6.20;99.90;;;;;;4988631;28;20194;-79
2023/01/09 05:15:49;;;;;;;0.70;0.40;;;6.20;99.90;;;;;;4956835;28;21197;-79
2023/01/09 05:18:15;;;;;;;0.60;0.30;;;6.20;99.90;;;;;;4989430;28;20185;-76
2023/01/09 05:20:40;;;;;;;0.60;0.30;;;6.20;99.90;;;;;;4990218;28;20198;-76
2023/01/09 05:23:06;;;;;;;0.70;0.40;;;6.10;99.90;;;;;;4990461;28;20232;-78
2023/01/09 05:25:31;;;;;;;3.00;0.40;;;6.10;99.90;;;;;;4988981;28;20193;-76
2023/01/09 05:27:58;;;;;;;0.60;0.40;;;6.10;99.90;;;;;;4989080;28;20204;-76
2023/01/09 05:30:24;;;;;;;0.60;0.30;;;6.10;99.90;;;;;;4988967;28;20197;-76
2023/01/09 05:32:49;;;;;;;0.80;0.30;;;6.00;99.90;;;;;;4988723;28;20475;-76
2023/01/09 05:35:15;;;;;;;4.30;0.40;;;6.00;99.90;;;;;;4988269;28;20404;-77
2023/01/09 05:37:41;;;;;;;0.60;0.40;;;6.00;99.90;;;;;;4989792;28;20209;-77
2023/01/09 05:40:07;;;;;;;0.70;0.40;;;5.90;99.90;;;;;;4993870;28;20195;-76
2023/01/09 05:42:32;;;;;;;1.37;0.30;;;6.00;99.90;;;;;;4992369;28;20716;-77
2023/01/09 05:44:58;;;;;;;0.80;0.40;;;5.90;99.90;;;;;;4994030;28;20424;-77
2023/01/09 05:47:23;;;;;;;0.90;0.40;;;5.80;99.90;;;;;;4992275;28;20193;-77
2023/01/09 05:49:49;;;;;;;0.70;0.40;;;5.80;99.90;;;;;;4991942;28;20197;-76
2023/01/09 05:52:15;;;;;;;0.60;0.30;;;5.90;99.90;;;;;;4975802;28;20213;-76
2023/01/09 05:54:40;;;;;;;0.60;0.30;;;5.80;99.90;;;;;;4975727;28;20305;-76
2023/01/09 05:57:06;;;;;;;0.60;0.30;;;5.80;99.90;;;;;;4993417;28;20703;-76
2023/01/09 05:59:32;;;;;;;0.70;0.47;;;5.80;99.90;;;;;;4976006;28;20181;-75
2023/01/09 06:01:58;;;;;;;1.13;0.40;;;5.80;99.90;;;;;;4993224;28;20202;-75
2023/01/09 06:04:24;;;;;;;0.70;0.40;;;5.70;99.90;;;;;;4993165;28;20435;-76
2023/01/09 06:06:50;;;;;;;1.77;1.17;;;5.70;99.90;;;;;;4993005;28;20197;-76
2023/01/09 06:09:15;;;;;;;0.73;0.50;;;5.60;99.90;;;;;;4991489;28;20429;-76
2023/01/09 06:11:41;;;;;;;0.60;0.40;;;5.60;99.90;;;;;;4991344;28;20224;-75
2023/01/09 06:14:06;;;;;;;3.03;0.43;;;5.60;99.90;;;;;;4991993;28;20296;-76
2023/01/09 06:16:32;;;;;;;4.53;0.50;;;5.60;99.90;;;;;;4991535;28;20256;-76
2023/01/09 06:18:58;;;;;;;0.77;0.50;;;5.70;99.90;;;;;;4990189;28;20272;-79
2023/01/09 06:21:24;;;;;;;0.83;0.60;;;5.60;99.90;;;;;;4990279;28;20237;-77
2023/01/09 06:23:49;;;;;;;1.33;0.63;;;5.60;99.90;;;;;;4991618;28;20573;-77
2023/01/09 06:26:15;;;;;;;0.80;0.50;;;5.60;99.90;;;;;;4990431;28;20495;-77
2023/01/09 06:28:40;;;;;;;2.03;0.77;;;5.60;99.90;;;;;;4990235;28;20199;-77
2023/01/09 06:31:06;;;;;;;0.70;0.40;;;5.60;99.90;;;;;;4991725;28;20312;-77
2023/01/09 06:33:31;;;;;;;0.60;0.40;;;5.60;99.90;;;;;;4974288;28;20212;-78
2023/01/09 06:35:57;;;;;;;2.30;0.50;;;5.60;99.90;;;;;;4975925;28;20236;-78
2023/01/09 06:38:23;;;;;;;1.00;0.40;;;5.70;99.90;;;;;;4976288;28;20174;-77
2023/01/09 06:40:49;;;;;;;1.37;0.60;;;5.60;99.90;;;;;;4993591;28;20213;-79
2023/01/09 06:43:15;;;;;;;0.60;0.40;;;5.60;99.90;;;;;;4991985;28;20205;-77
2023/01/09 06:45:44;;;;;;;1.27;0.50;;;5.60;99.90;;;;;;4991807;28;20272;-78
2023/01/09 06:48:10;;;;;;;1.43;0.50;;;5.70;99.90;;;;;;4975672;28;20437;-78
2023/01/09 06:50:35;;;;;;;0.80;0.57;;;5.60;99.90;;;;;;4991402;28;20929;-78
2023/01/09 06:53:01;;;;;;;2.60;0.50;;;5.60;99.90;;;;;;5007366;28;20428;-76
2023/01/09 06:55:27;;;;;;;0.80;0.50;;;5.60;99.90;;;;;;5012398;28;20244;-78
2023/01/09 06:57:53;;;;;;;2.70;0.60;;;5.60;99.90;;;;;;4996274;28;20185;-77
2023/01/09 07:00:18;;;;;;;2.00;1.17;;;5.70;99.90;;;;;;4994747;28;20209;-77
2023/01/09 07:02:44;;;;;;;1.63;0.70;;;5.70;99.90;;;;;;4990068;28;20205;-78
2023/01/09 07:05:10;;;;;;;1.40;0.50;;;5.70;99.90;;;;;;4991857;28;20487;-78
2023/01/09 07:07:38;;;;;;;5.00;0.80;;;5.70;99.90;;;;;;4993238;28;20249;-78
2023/01/09 07:10:04;;;;;;;1.17;0.50;;;5.70;99.90;;;;;;4973934;28;20425;-78
2023/01/09 07:12:33;;;;;;;0.80;0.50;;;5.70;99.90;;;;;;4973281;28;20912;-78
2023/01/09 07:14:58;;;;;;;2.60;0.60;;;5.70;99.90;;;;;;4990781;28;20460;-78
2023/01/09 07:17:24;;;;;;;1.17;0.50;;;5.70;99.90;;;;;;4990818;28;20443;-77
2023/01/09 07:19:50;;;;;;;4.67;0.73;;;5.80;99.90;;;;;;4990839;28;20194;-78
2023/01/09 07:22:16;;;;;;;0.97;0.50;;;5.80;99.90;;;;;;4991081;28;20336;-78
2023/01/09 07:24:43;;;;;;;3.37;0.80;;;5.80;99.90;;;;;;4988829;28;20201;-76
2023/01/09 07:27:10;;;;;;;4.40;0.80;;;5.80;99.90;;;;;;4990549;28;20533;-77
2023/01/09 07:29:36;;;;;;;2.63;0.50;;;5.80;99.90;;;;;;4990607;28;20513;-76
2023/01/09 07:32:02;;;;;;;2.03;0.63;;;5.80;99.90;;;;;;4990390;28;20467;-78
2023/01/09 07:34:28;;;;;;;1.77;0.83;;;5.90;99.90;;;;;;4990679;28;20205;-77
2023/01/09 07:36:53;;;;;;;1.93;0.67;;;5.90;99.90;;;;;;4989335;28;20855;-77
2023/01/09 07:39:19;;;;;;;9.93;0.90;;;5.80;99.90;;;;;;4973098;28;20224;-77
2023/01/09 07:41:45;;;;;;;4.37;2.07;;;6.00;99.90;;;;;;4990799;28;20267;-78
2023/01/09 07:44:12;;;;;;;1.73;0.50;;;6.00;99.90;;;;;;4990478;28;20430;-77
2023/01/09 07:46:38;;;;;;;4.50;0.90;;;6.00;99.90;;;;;;4989096;28;20432;-77
2023/01/09 07:49:04;;;;;;;14.80;1.00;;;5.90;99.90;;;;;;4990326;28;20471;-77
2023/01/09 07:51:29;;;;;;;4.10;1.17;;;6.00;99.90;;;;;;4990229;28;20533;-78
2023/01/09 07:53:55;;;;;;;3.53;0.70;;;6.00;99.90;;;;;;4989885;28;20468;-77
2023/01/09 07:56:21;;;;;;;3.40;0.40;;;6.00;99.90;;;;;;4990061;28;20194;-77
2023/01/09 07:58:46;;;;;;;1.00;0.40;;;6.00;99.90;;;;;;4956509;28;20605;-76
2023/01/09 08:01:12;;;;;;;3.50;0.60;;;6.00;99.90;;;;;;4988292;28;20206;-76
2023/01/09 08:03:37;;;;;;;1.67;0.60;;;6.00;99.90;;;;;;4989047;28;20561;-76
2023/01/09 08:06:03;;;;;;;3.80;0.77;;;6.00;99.90;;;;;;4989845;28;20189;-76
2023/01/09 08:08:29;;;;;;;1.97;0.60;;;6.00;99.90;;;;;;4989577;28;20659;-76
2023/01/09 08:10:55;;;;;;;1.10;0.70;;;6.00;99.90;;;;;;4988105;28;20459;-76
2023/01/09 08:13:21;;;;;;;4.83;1.17;;;6.00;99.90;;;;;;4971933;28;20201;-76
2023/01/09 08:15:47;;;;;;;3.70;0.90;;;6.00;99.90;;;;;;4972112;28;20225;-77
2023/01/09 08:18:12;;;;;;;2.50;0.67;;;6.00;99.90;;;;;;4988354;28;20439;-77
2023/01/09 08:20:38;;;;;;;3.40;1.07;;;6.00;99.90;;;;;;4989748;28;20228;-78
2023/01/09 08:23:03;;;;;;;1.20;0.60;;;6.00;99.90;;;;;;4972688;28;20185;-77
2023/01/09 08:25:29;;;;;;;4.00;0.80;;;6.10;99.90;;;;;;4989831;28;20204;-77
2023/01/09 08:27:54;;;;;;;1.20;0.70;;;6.10;99.90;;;;;;4990129;28;20658;-77
2023/01/09 08:30:20;;;;;;;4.20;0.70;;;6.10;99.90;;;;;;4988703;28;20193;-77
2023/01/09 08:32:51;;;;;;;1.63;0.70;;;6.10;99.90;;;;;;4989806;28;20197;-78
2023/01/09 08:35:18;;;;;;;3.13;0.70;;;6.20;99.90;;;;;;4972153;28;20479;-77
2023/01/09 08:37:45;;;;;;;2.70;0.70;;;6.10;99.90;;;;;;4988609;28;20818;-77
2023/01/09 08:40:12;;;;;;;3.30;0.93;;;6.20;99.90;;;;;;4989739;28;20428;-78
2023/01/09 08:48:14;;;;;;;1.63;0.70;;;6.20;99.90;;;;;;4958855;28;20425;-78
2023/01/09 08:50:39;;;;;;;1.50;0.73;;;6.20;99.90;;;;;;4989751;28;20429;-77
2023/01/09 08:53:05;;;;;;;5.17;0.77;;;6.20;99.90;;;;;;4990944;28;20591;-78
2023/01/09 08:55:31;;;;;;;2.70;0.70;;;6.10;99.90;;;;;;4990452;28;20295;-77
2023/01/09 08:57:56;;;;;;;5.03;0.83;;;6.20;99.90;;;;;;4990800;28;20193;-78
2023/01/09 09:00:24;;;;;;;1.23;0.77;;;6.20;99.90;;;;;;4972310;28;20674;-77
2023/01/09 09:02:54;;;;;;;2.93;0.60;;;6.30;99.90;;;;;;4972036;28;20186;-77
2023/01/09 09:05:21;;;;;;;3.40;0.60;;;6.30;99.90;;;;;;4989728;28;20421;-77
2023/01/09 09:07:54;;;;;;;6.67;1.00;;;6.40;99.90;;;;;;4990085;28;20186;-77
2023/01/09 09:10:22;;;;;;;4.87;0.87;;;6.40;99.90;;;;;;4972313;28;20447;-77
2023/01/09 09:12:48;;;;;;;1.93;0.60;;;6.60;99.90;;;;;;4989380;28;20417;-77
2023/01/09 09:15:23;;;;;;;3.40;1.17;;;6.60;99.90;;;;;;4972506;28;20476;-77
2023/01/09 09:17:52;;;;;;;1.10;0.63;;;6.80;99.90;;;;;;4990493;28;20420;-78
2023/01/09 09:20:22;;;;;;;2.80;0.90;;;6.90;99.90;;;;;;4973131;28;20624;-78
2023/01/09 09:22:48;;;;;;;3.47;1.33;;;7.00;99.90;;;;;;4990042;28;20417;-77
2023/01/09 09:25:15;;;;;;;2.97;0.73;;;7.20;99.90;;;;;;4990290;28;20430;-78
2023/01/09 09:27:41;;;;;;;2.30;0.70;;;7.30;99.90;;;;;;4989377;28;20421;-77
2023/01/09 09:30:08;;;;;;;1.00;0.60;;;7.30;99.90;;;;;;4971571;28;20436;-77
2023/01/09 09:32:34;;;;;;;7.17;1.37;;;7.40;99.90;;;;;;4987812;28;21068;-77
2023/01/09 09:34:59;;;;;;;4.67;0.97;;;7.40;99.90;;;;;;4987807;28;20469;-78
2023/01/09 09:37:25;;;;;;;3.93;0.60;;;7.40;99.90;;;;;;4989485;28;20209;-77
2023/01/09 09:39:51;;;;;;;2.77;1.00;;;7.50;99.90;;;;;;4988403;28;20186;-77
2023/01/09 09:45:33;;;;;;;3.17;0.70;;;7.50;99.90;;;;;;4989852;28;20274;-77
2023/01/09 09:48:16;;;;;;;1.80;0.73;;;7.50;99.90;;;;;;4989858;28;20922;-77
2023/01/09 09:51:03;;;;;;;1.47;0.73;;;7.50;99.90;;;;;;4989318;28;20516;-77
2023/01/09 09:53:55;;;;;;;3.23;0.77;;;7.50;99.90;;;;;;4989736;28;20424;-78
2023/01/09 09:56:22;;;;;;;2.10;1.00;;;7.50;99.90;;;;;;4994139;28;20997;-77
2023/01/09 09:58:57;;;;;;;2.83;0.63;;;7.30;99.90;;;;;;4994480;28;20413;-78
2023/01/09 10:01:56;;;;;;;4.63;0.90;;;7.30;99.90;;;;;;4992032;28;20910;-79
2023/01/09 10:04:25;;;;;;;2.90;0.77;;;7.30;99.90;;;;;;4989990;28;20390;-78
2023/01/09 10:07:08;;;;;;;6.17;1.73;;;7.20;99.90;;;;;;4990116;28;20421;-78
2023/01/09 10:09:44;;;;;;;5.47;1.43;;;7.00;99.90;;;;;;4990104;28;20417;-79
2023/01/09 10:12:20;;;;;;;3.33;0.73;;;7.00;99.90;;;;;;4972501;28;20467;-78
2023/01/09 10:14:45;;;;;;;6.67;0.90;;;7.00;99.90;;;;;;4989715;28;20453;-77
2023/01/09 10:17:38;;;;;;;10.10;1.20;;;6.90;99.90;;;;;;4989805;28;20424;-78
2023/01/09 10:20:26;;;;;;;4.80;0.93;;;6.90;99.90;;;;;;4989712;28;20638;-79
2023/01/09 10:23:13;;;;;;;2.83;0.83;;;6.90;99.90;;;;;;4988975;28;20420;-77
2023/01/09 10:25:51;;;;;;;4.87;1.57;;;6.90;99.90;;;;;;4990752;28;20436;-77
2023/01/09 10:28:23;;;;;;;5.87;1.13;;;6.90;99.90;;;;;;4991453;28;20411;-78
2023/01/09 10:31:12;;;;;;;6.30;1.20;;;7.20;99.90;;;;;;4991262;28;20441;-78
2023/01/09 10:34:08;;;;;;;4.17;0.80;;;7.10;99.90;;;;;;4992355;28;20432;-78
2023/01/09 10:37:05;;;;;;;7.70;4.40;;;7.10;99.90;;;;;;4974868;28;20485;-78
2023/01/09 10:39:51;;;;;;;9.07;1.80;;;7.20;99.90;;;;;;4983628;28;20441;-78
2023/01/09 10:42:30;;;;;;;1.90;0.60;;;7.40;99.90;;;;;;4992568;28;20440;-78
2023/01/09 10:45:15;;;;;;;5.80;0.80;;;7.50;99.90;;;;;;4992309;28;20430;-77
2023/01/09 10:47:43;;;;;;;2.77;0.70;;;7.60;99.90;;;;;;4992438;28;20467;-78
2023/01/09 10:50:22;;;;;;;5.10;0.80;;;7.60;99.90;;;;;;4992564;28;20417;-79
2023/01/09 10:52:55;;;;;;;19.90;8.43;;;7.70;99.90;;;;;;4975018;28;20456;-78
2023/01/09 10:55:40;;;;;;;1.70;1.53;;;7.70;99.90;;;;;;4974249;28;21419;-77
2023/01/09 10:58:17;;;;;;;2.20;1.23;;;7.70;99.90;;;;;;4990444;28;20528;-78
2023/01/09 11:00:44;;;;;;;2.90;1.27;;;7.60;99.90;;;;;;4991606;28;20471;-78
2023/01/09 11:03:12;;;;;;;4.50;0.80;;;7.50;99.90;;;;;;4974267;28;20548;-77
2023/01/09 11:05:38;;;;;;;4.37;0.90;;;7.40;99.90;;;;;;4974048;28;20776;-77
2023/01/09 11:08:29;;;;;;;2.43;0.80;;;7.50;99.90;;;;;;4990105;28;20436;-78
2023/01/09 11:10:57;;;;;;;2.87;0.70;;;7.50;99.90;;;;;;4973498;28;20445;-77
2023/01/09 11:13:32;;;;;;;8.10;1.07;;;7.60;99.90;;;;;;4973866;28;20939;-77
2023/01/09 11:16:18;;;;;;;7.57;2.03;;;7.50;99.90;;;;;;4991009;28;21258;-78
2023/01/09 11:19:02;;;;;;;4.73;0.73;;;7.80;99.90;;;;;;4991087;28;20421;-77
2023/01/09 11:21:38;;;;;;;4.67;1.27;;;7.80;99.90;;;;;;4989794;28;20440;-77
2023/01/09 11:24:20;;;;;;;4.20;1.67;;;7.70;99.90;;;;;;4991096;28;20422;-77
2023/01/09 11:26:48;;;;;;;4.20;1.30;;;7.80;99.90;;;;;;4990905;28;20973;-77
2023/01/09 11:29:16;;;;;;;4.60;1.00;;;8.00;99.90;;;;;;4973362;28;20446;-77
2023/01/09 11:31:50;;;;;;;7.40;1.07;;;7.80;99.90;;;;;;4990678;28;20442;-77
2023/01/09 11:34:29;;;;;;;4.47;1.00;;;7.70;99.90;;;;;;4973219;28;20472;-77
2023/01/09 11:37:09;;;;;;;3.23;0.83;;;7.70;99.90;;;;;;4989616;28;20424;-78
2023/01/09 11:39:40;;;;;;;6.40;1.23;;;7.70;99.90;;;;;;4990247;28;20401;-78
2023/01/09 11:42:16;;;;;;;3.60;0.80;;;7.80;99.90;;;;;;4990963;28;20464;-79
2023/01/09 11:44:42;;;;;;;4.23;1.70;;;7.70;99.90;;;;;;4990982;28;21076;-77
2023/01/09 11:47:34;;;;;;;4.40;1.13;;;7.70;99.90;;;;;;4989622;28;20536;-77
2023/01/09 11:50:23;;;;;;;5.63;0.93;;;7.70;99.90;;;;;;4990685;28;20240;-78
2023/01/09 11:53:11;;;;;;;20.73;11.77;;;7.90;99.90;;;;;;4990166;28;20425;-77
2023/01/09 11:55:37;;;;;;;5.27;1.23;;;7.90;99.90;;;;;;4990527;28;20467;-77
2023/01/09 11:58:02;;;;;;;13.67;1.27;;;8.00;99.90;;;;;;4990497;28;20429;-78
2023/01/09 12:00:34;;;;;;;6.70;1.00;;;8.00;99.90;;;;;;4990562;28;20213;-78
2023/01/09 12:03:30;;;;;;;4.50;0.83;;;8.10;99.90;;;;;;4989248;28;20214;-78
2023/01/09 12:06:25;;;;;;;3.23;0.73;;;8.10;99.90;;;;;;4973795;28;21114;-78
2023/01/09 12:09:05;;;;;;;7.50;0.80;;;8.30;99.90;;;;;;4961966;28;21005;-78
2023/01/09 12:11:37;;;;;;;8.33;1.10;;;8.20;99.90;;;;;;4990094;28;20425;-78
2023/01/09 12:14:27;;;;;;;5.10;0.90;;;8.10;99.90;;;;;;4990039;28;20547;-77
2023/01/09 12:17:02;;;;;;;2.20;0.70;;;8.00;99.90;;;;;;4990611;28;20397;-78
2023/01/09 12:20:03;;;;;;;3.40;0.80;;;8.10;99.90;;;;;;4989890;28;20420;-78
2023/01/09 12:22:50;;;;;;;2.37;0.70;;;8.00;99.90;;;;;;4990497;28;20444;-77
2023/01/09 12:25:22;;;;;;;10.33;0.93;;;8.00;99.90;;;;;;4990990;28;20427;-79
2023/01/09 12:28:18;;;;;;;4.10;1.30;;;8.10;99.90;;;;;;4991563;28;20422;-78
2023/01/09 12:31:10;;;;;;;5.23;1.23;;;8.00;99.90;;;;;;4991176;28;20516;-79
2023/01/09 12:34:03;;;;;;;3.70;1.00;;;8.00;99.90;;;;;;4991357;28;20764;-79
2023/01/09 12:36:47;;;;;;;4.27;1.10;;;8.00;99.90;;;;;;4991333;28;20480;-78
2023/01/09 12:39:46;;;;;;;5.53;1.10;;;8.00;99.90;;;;;;4991329;28;20435;-79
2023/01/09 12:42:22;;;;;;;2.87;1.10;;;8.00;99.90;;;;;;4990876;28;20439;-78
2023/01/09 12:45:01;;;;;;;2.90;0.97;;;7.90;99.90;;;;;;4991300;28;20413;-78
2023/01/09 12:47:40;;;;;;;4.33;1.10;;;7.90;99.90;;;;;;4990617;28;20417;-79
2023/01/09 12:50:20;;;;;;;2.93;0.90;;;8.00;99.90;;;;;;4991251;28;20413;-79
2023/01/09 12:53:01;;;;;;;3.47;0.80;;;8.00;99.90;;;;;;4990998;28;20460;-79
2023/01/09 12:55:33;;;;;;;4.37;1.13;;;8.10;99.90;;;;;;4973394;28;20598;-78
2023/01/09 12:58:06;;;;;;;2.27;1.20;;;8.20;99.90;;;;;;4991118;28;20409;-79
2023/01/09 13:00:46;;;;;;;10.90;1.47;;;8.10;99.90;;;;;;4990454;28;20417;-78
2023/01/09 13:03:27;;;;;;;2.87;0.90;;;8.10;99.90;;;;;;4990678;28;20409;-79
2023/01/09 13:05:56;;;;;;;2.60;0.70;;;8.00;99.90;;;;;;4990721;28;20421;-79
2023/01/09 13:09:14;;;;;;;2.53;0.73;;;8.00;99.90;;;;;;4990784;28;20420;-79
2023/01/09 13:11:47;;;;;;;1.47;0.60;;;8.00;99.90;;;;;;4948842;28;20509;-79
2023/01/09 13:14:54;;;;;;;2.53;0.60;;;7.90;99.90;;;;;;4982332;28;20820;-79
2023/01/09 13:18:04;;;;;;;3.03;0.50;;;7.90;99.90;;;;;;4989246;28;20425;-77
2023/01/09 13:20:43;;;;;;;3.27;0.50;;;7.90;99.90;;;;;;4947394;28;20431;-77
2023/01/09 13:23:29;;;;;;;2.50;0.63;;;7.70;99.90;;;;;;4947856;29;20546;-77
2023/01/09 13:26:01;;;;;;;2.30;0.60;;;7.70;99.90;;;;;;4976640;28;20468;-77
2023/01/09 13:28:33;;;;;;;3.77;0.50;;;7.70;99.90;;;;;;4989432;28;20468;-78
2023/01/09 13:31:18;;;;;;;2.73;0.50;;;7.80;99.90;;;;;;4989326;28;20432;-77
2023/01/09 13:33:50;;;;;;;1.20;0.47;;;8.20;99.90;;;;;;4989001;28;21057;-77